RYR5T EPWA-LICA
Flight info
| Callsign | RYR5T |
|---|---|
| Flight time | 1h 34m |
| Altitude | 34000 |
| Route | EVINA DCT LIGDI DCT SKARY DCT VADEX DCT ZOLKU DCT OLATI DCT KOPRY DCT VAPUP/N0430F330 DCT BEDPI DCT EVINO/N0341F190 M620 ARBUM |
| Aircraft | B738/M-SDE2E3FGHIRWXY/LB1 |
Departure
| Time | 2026-04-23 11:43 |
|---|---|
| Airport | Warsaw Chopin Airport (EPWA) |
Arrival
| Time | 2026-04-23 13:18 |
|---|---|
| Airport | Lamezia Terme Sant'Eufemia International Airport (LICA) |
| Time | Latitude | Longitude | Altitude | Speed | Heading |
|---|---|---|---|---|---|
| 2026-04-23 11:21 | 52.16794 | 20.97020 | 334 ft | 0 kts | 276° |
| 2026-04-23 11:38 | 52.16794 | 20.97017 | 338 ft | 1 kts | 276° |
| 2026-04-23 11:38 | 52.16795 | 20.96973 | 338 ft | 6 kts | 257° |
| 2026-04-23 11:38 | 52.16742 | 20.96963 | 335 ft | 12 kts | 156° |
| 2026-04-23 11:39 | 52.16646 | 20.97046 | 337 ft | 19 kts | 149° |
| 2026-04-23 11:39 | 52.16518 | 20.97160 | 335 ft | 17 kts | 153° |
| 2026-04-23 11:39 | 52.16422 | 20.97264 | 336 ft | 16 kts | 124° |
| 2026-04-23 11:39 | 52.16374 | 20.97429 | 335 ft | 16 kts | 114° |
| 2026-04-23 11:40 | 52.16329 | 20.97588 | 333 ft | 15 kts | 114° |
| 2026-04-23 11:40 | 52.16302 | 20.97716 | 337 ft | 1 kts | 152° |
| 2026-04-23 11:40 | 52.16299 | 20.97703 | 333 ft | 1 kts | 272° |
| 2026-04-23 11:40 | 52.16303 | 20.97684 | 337 ft | 2 kts | 294° |
| 2026-04-23 11:41 | 52.16308 | 20.97667 | 334 ft | 0 kts | 294° |
| 2026-04-23 11:42 | 52.16364 | 20.97460 | 336 ft | 56 kts | 294° |
| 2026-04-23 11:43 | 52.16625 | 20.96542 | 337 ft | 123 kts | 294° |
| 2026-04-23 11:43 | 52.17035 | 20.95086 | 803 ft | 147 kts | 298° |
| 2026-04-23 11:43 | 52.17431 | 20.93604 | 1948 ft | 138 kts | 298° |
| 2026-04-23 11:43 | 52.17844 | 20.92091 | 2651 ft | 161 kts | 300° |
| 2026-04-23 11:44 | 52.18273 | 20.90185 | 2980 ft | 201 kts | 281° |
| 2026-04-23 11:44 | 52.17995 | 20.87736 | 3418 ft | 232 kts | 262° |
| 2026-04-23 11:44 | 52.17599 | 20.85054 | 3825 ft | 252 kts | 262° |
| 2026-04-23 11:44 | 52.17207 | 20.82208 | 4721 ft | 259 kts | 263° |
| 2026-04-23 11:45 | 52.16817 | 20.79339 | 5689 ft | 268 kts | 263° |
| 2026-04-23 11:45 | 52.16414 | 20.76354 | 6661 ft | 274 kts | 263° |
| 2026-04-23 11:45 | 52.15997 | 20.73289 | 7570 ft | 280 kts | 262° |
| 2026-04-23 11:45 | 52.15135 | 20.70376 | 8504 ft | 298 kts | 233° |
| 2026-04-23 11:46 | 52.13544 | 20.68102 | 9471 ft | 308 kts | 222° |
| 2026-04-23 11:46 | 52.11845 | 20.65980 | 10278 ft | 316 kts | 221° |
| 2026-04-23 11:46 | 52.10014 | 20.63723 | 10629 ft | 343 kts | 221° |
| 2026-04-23 11:46 | 52.08050 | 20.61292 | 11036 ft | 363 kts | 221° |
| 2026-04-23 11:47 | 52.06012 | 20.58757 | 11787 ft | 371 kts | 221° |
| 2026-04-23 11:47 | 52.03950 | 20.56179 | 12638 ft | 376 kts | 221° |
| 2026-04-23 11:47 | 52.01862 | 20.53558 | 13504 ft | 382 kts | 221° |
| 2026-04-23 11:47 | 51.99742 | 20.50890 | 14261 ft | 387 kts | 221° |
| 2026-04-23 11:48 | 51.97604 | 20.48201 | 15074 ft | 390 kts | 221° |
| 2026-04-23 11:48 | 51.95432 | 20.45614 | 15895 ft | 395 kts | 213° |
| 2026-04-23 11:48 | 51.92830 | 20.44065 | 16674 ft | 404 kts | 191° |
| 2026-04-23 11:48 | 51.90025 | 20.43541 | 17517 ft | 407 kts | 186° |
| 2026-04-23 11:49 | 51.87191 | 20.43161 | 18244 ft | 412 kts | 185° |
| 2026-04-23 11:49 | 51.84310 | 20.42795 | 18890 ft | 416 kts | 185° |
| 2026-04-23 11:49 | 51.81413 | 20.42408 | 19588 ft | 418 kts | 186° |
| 2026-04-23 11:49 | 51.78541 | 20.42000 | 20254 ft | 421 kts | 186° |
| 2026-04-23 11:50 | 51.75616 | 20.41565 | 20925 ft | 424 kts | 186° |
| 2026-04-23 11:50 | 51.72659 | 20.41115 | 21571 ft | 427 kts | 186° |
| 2026-04-23 11:50 | 51.69686 | 20.40661 | 22204 ft | 431 kts | 186° |
| 2026-04-23 11:50 | 51.66698 | 20.40206 | 22827 ft | 434 kts | 186° |
| 2026-04-23 11:51 | 51.63669 | 20.39747 | 23455 ft | 437 kts | 186° |
| 2026-04-23 11:51 | 51.60624 | 20.39287 | 23958 ft | 441 kts | 186° |
| 2026-04-23 11:51 | 51.57553 | 20.38823 | 24384 ft | 446 kts | 185° |
| 2026-04-23 11:51 | 51.54436 | 20.38353 | 24804 ft | 452 kts | 185° |
| 2026-04-23 11:52 | 51.51324 | 20.37884 | 25227 ft | 456 kts | 185° |
| 2026-04-23 11:52 | 51.48144 | 20.37405 | 25641 ft | 461 kts | 185° |
| 2026-04-23 11:52 | 51.44939 | 20.36922 | 26072 ft | 464 kts | 184° |
| 2026-04-23 11:52 | 51.41721 | 20.36439 | 26588 ft | 465 kts | 184° |
| 2026-04-23 11:53 | 51.38490 | 20.35738 | 26964 ft | 472 kts | 194° |
| 2026-04-23 11:53 | 51.35428 | 20.33783 | 27315 ft | 476 kts | 206° |
| 2026-04-23 11:53 | 51.32441 | 20.31442 | 27714 ft | 480 kts | 207° |
| 2026-04-23 11:53 | 51.29437 | 20.29065 | 28061 ft | 485 kts | 207° |
| 2026-04-23 11:54 | 51.26392 | 20.26676 | 28420 ft | 489 kts | 206° |
| 2026-04-23 11:54 | 51.23309 | 20.24289 | 28771 ft | 493 kts | 206° |
| 2026-04-23 11:54 | 51.20216 | 20.21927 | 29364 ft | 492 kts | 206° |
| 2026-04-23 11:54 | 51.17152 | 20.19607 | 29744 ft | 495 kts | 205° |
| 2026-04-23 11:55 | 51.14023 | 20.17253 | 30038 ft | 500 kts | 205° |
| 2026-04-23 11:55 | 51.10860 | 20.14880 | 30364 ft | 502 kts | 205° |
| 2026-04-23 11:55 | 51.07698 | 20.12513 | 30828 ft | 500 kts | 205° |
| 2026-04-23 11:55 | 51.04545 | 20.10154 | 31319 ft | 498 kts | 205° |
| 2026-04-23 11:56 | 51.01405 | 20.07808 | 31750 ft | 498 kts | 205° |
| 2026-04-23 11:56 | 50.98279 | 20.05474 | 32297 ft | 494 kts | 205° |
| 2026-04-23 11:56 | 50.95176 | 20.03161 | 32758 ft | 493 kts | 205° |
| 2026-04-23 11:56 | 50.92110 | 20.00878 | 33136 ft | 493 kts | 205° |
| 2026-04-23 11:57 | 50.89000 | 19.98565 | 33530 ft | 493 kts | 205° |
| 2026-04-23 11:57 | 50.85891 | 19.96257 | 33947 ft | 492 kts | 205° |
| 2026-04-23 11:57 | 50.82776 | 19.93947 | 34039 ft | 498 kts | 205° |
| 2026-04-23 11:58 | 50.76494 | 19.89300 | 34038 ft | 493 kts | 205° |
| 2026-04-23 11:58 | 50.70367 | 19.84781 | 34049 ft | 488 kts | 205° |
| 2026-04-23 11:59 | 50.64189 | 19.80238 | 34060 ft | 490 kts | 205° |
| 2026-04-23 11:59 | 50.57982 | 19.75687 | 34064 ft | 492 kts | 205° |
| 2026-04-23 12:00 | 50.51797 | 19.71165 | 34054 ft | 493 kts | 205° |
| 2026-04-23 12:00 | 50.45570 | 19.66626 | 34046 ft | 492 kts | 205° |
| 2026-04-23 12:01 | 50.39395 | 19.62136 | 34056 ft | 490 kts | 205° |
| 2026-04-23 12:01 | 50.33209 | 19.57651 | 34062 ft | 487 kts | 205° |
| 2026-04-23 12:02 | 50.27051 | 19.53245 | 34050 ft | 484 kts | 204° |
| 2026-04-23 12:02 | 50.20928 | 19.49063 | 34060 ft | 482 kts | 203° |
| 2026-04-23 12:03 | 50.14783 | 19.44904 | 34068 ft | 481 kts | 203° |
| 2026-04-23 12:03 | 50.08649 | 19.40739 | 34056 ft | 479 kts | 203° |
| 2026-04-23 12:04 | 50.02533 | 19.36583 | 34054 ft | 478 kts | 203° |
| 2026-04-23 12:04 | 49.96462 | 19.32467 | 34065 ft | 478 kts | 203° |
| 2026-04-23 12:05 | 49.90369 | 19.28347 | 34078 ft | 477 kts | 203° |
| 2026-04-23 12:05 | 49.84314 | 19.24266 | 34065 ft | 476 kts | 203° |
| 2026-04-23 12:06 | 49.78213 | 19.20165 | 34070 ft | 476 kts | 203° |
| 2026-04-23 12:06 | 49.69103 | 19.14062 | 34072 ft | 474 kts | 203° |
| 2026-04-23 12:07 | 49.63064 | 19.10030 | 34075 ft | 474 kts | 203° |
| 2026-04-23 12:07 | 49.57003 | 19.05994 | 34072 ft | 474 kts | 203° |
| 2026-04-23 12:08 | 49.50990 | 19.02000 | 34076 ft | 474 kts | 203° |
| 2026-04-23 12:08 | 49.44922 | 18.97984 | 34082 ft | 473 kts | 202° |
| 2026-04-23 12:09 | 49.38681 | 18.94754 | 34064 ft | 473 kts | 195° |
| 2026-04-23 12:09 | 49.32352 | 18.91921 | 34074 ft | 473 kts | 196° |
| 2026-04-23 12:10 | 49.26079 | 18.88976 | 34076 ft | 473 kts | 197° |
| 2026-04-23 12:10 | 49.19930 | 18.85363 | 34075 ft | 473 kts | 203° |
| 2026-04-23 12:11 | 49.13906 | 18.81289 | 34080 ft | 473 kts | 204° |
| 2026-04-23 12:11 | 49.07896 | 18.77239 | 34066 ft | 474 kts | 203° |
| 2026-04-23 12:12 | 49.01849 | 18.73249 | 34073 ft | 474 kts | 203° |
| 2026-04-23 12:12 | 48.95778 | 18.69290 | 34080 ft | 474 kts | 202° |
| 2026-04-23 12:13 | 48.89749 | 18.65376 | 34076 ft | 474 kts | 202° |
| 2026-04-23 12:13 | 48.83678 | 18.61443 | 34084 ft | 474 kts | 202° |
| 2026-04-23 12:14 | 48.77599 | 18.57512 | 34085 ft | 474 kts | 202° |
| 2026-04-23 12:14 | 48.71562 | 18.53619 | 34080 ft | 474 kts | 202° |
| 2026-04-23 12:15 | 48.65472 | 18.49701 | 34080 ft | 474 kts | 202° |
| 2026-04-23 12:15 | 48.59415 | 18.45815 | 34087 ft | 474 kts | 202° |
| 2026-04-23 12:16 | 48.54352 | 18.42574 | 34086 ft | 475 kts | 202° |
| 2026-04-23 12:16 | 48.48263 | 18.38687 | 34088 ft | 475 kts | 202° |
| 2026-04-23 12:17 | 48.42188 | 18.34818 | 34087 ft | 475 kts | 202° |
| 2026-04-23 12:17 | 48.36078 | 18.30938 | 34097 ft | 476 kts | 202° |
| 2026-04-23 12:18 | 48.29958 | 18.27060 | 34096 ft | 477 kts | 202° |
| 2026-04-23 12:18 | 48.23871 | 18.23213 | 34102 ft | 476 kts | 202° |
| 2026-04-23 12:19 | 48.17754 | 18.19358 | 34095 ft | 476 kts | 202° |
| 2026-04-23 12:19 | 48.11645 | 18.15518 | 34102 ft | 475 kts | 202° |
| 2026-04-23 12:20 | 48.05593 | 18.11723 | 34099 ft | 473 kts | 201° |
| 2026-04-23 12:20 | 47.99505 | 18.07916 | 34104 ft | 472 kts | 201° |
| 2026-04-23 12:21 | 47.93482 | 18.04159 | 34106 ft | 470 kts | 201° |
| 2026-04-23 12:21 | 47.87434 | 18.00395 | 34108 ft | 469 kts | 201° |
| 2026-04-23 12:22 | 47.81445 | 17.96678 | 34117 ft | 469 kts | 201° |
| 2026-04-23 12:22 | 47.75401 | 17.92936 | 34118 ft | 469 kts | 201° |
| 2026-04-23 12:23 | 47.69399 | 17.89229 | 34121 ft | 469 kts | 201° |
| 2026-04-23 12:23 | 47.63352 | 17.85504 | 34122 ft | 470 kts | 201° |
| 2026-04-23 12:24 | 47.57290 | 17.81777 | 34124 ft | 471 kts | 201° |
| 2026-04-23 12:24 | 47.51239 | 17.78145 | 34136 ft | 472 kts | 200° |
| 2026-04-23 12:25 | 47.46418 | 17.75357 | 34125 ft | 473 kts | 200° |
| 2026-04-23 12:25 | 47.40272 | 17.71818 | 34130 ft | 473 kts | 200° |
| 2026-04-23 12:26 | 47.34133 | 17.68270 | 34126 ft | 474 kts | 200° |
| 2026-04-23 12:26 | 47.28020 | 17.64735 | 34129 ft | 474 kts | 200° |
| 2026-04-23 12:27 | 47.21869 | 17.61186 | 34138 ft | 474 kts | 200° |
| 2026-04-23 12:27 | 47.15729 | 17.57660 | 34138 ft | 473 kts | 200° |
| 2026-04-23 12:28 | 47.09585 | 17.54128 | 34129 ft | 472 kts | 200° |
| 2026-04-23 12:28 | 47.03493 | 17.50639 | 34129 ft | 470 kts | 200° |
| 2026-04-23 12:29 | 46.97407 | 17.47088 | 34129 ft | 470 kts | 203° |
| 2026-04-23 12:29 | 46.91522 | 17.43040 | 34143 ft | 469 kts | 205° |
| 2026-04-23 12:30 | 46.85660 | 17.38843 | 34148 ft | 469 kts | 205° |
| 2026-04-23 12:30 | 46.79816 | 17.34716 | 34155 ft | 469 kts | 205° |
| 2026-04-23 12:31 | 46.73918 | 17.30596 | 34151 ft | 469 kts | 205° |
| 2026-04-23 12:31 | 46.67994 | 17.26498 | 34158 ft | 471 kts | 204° |
| 2026-04-23 12:32 | 46.62068 | 17.22406 | 34159 ft | 472 kts | 205° |
| 2026-04-23 12:32 | 46.56129 | 17.18307 | 34150 ft | 474 kts | 205° |
| 2026-04-23 12:33 | 46.50192 | 17.14220 | 34164 ft | 475 kts | 204° |
| 2026-04-23 12:33 | 46.44196 | 17.10101 | 34155 ft | 476 kts | 204° |
| 2026-04-23 12:34 | 46.38230 | 17.06013 | 34148 ft | 476 kts | 204° |
| 2026-04-23 12:34 | 46.32230 | 17.01911 | 34154 ft | 475 kts | 204° |
| 2026-04-23 12:35 | 46.26281 | 16.97854 | 34151 ft | 475 kts | 204° |
| 2026-04-23 12:35 | 46.20250 | 16.93957 | 34151 ft | 473 kts | 201° |
| 2026-04-23 12:36 | 46.14129 | 16.90419 | 34160 ft | 472 kts | 200° |
| 2026-04-23 12:36 | 46.08071 | 16.86969 | 34172 ft | 470 kts | 200° |
| 2026-04-23 12:37 | 46.01991 | 16.83470 | 34166 ft | 469 kts | 200° |
| 2026-04-23 12:37 | 45.95937 | 16.79964 | 34156 ft | 468 kts | 200° |
| 2026-04-23 12:38 | 45.89920 | 16.76480 | 34170 ft | 467 kts | 200° |
| 2026-04-23 12:38 | 45.83886 | 16.72994 | 34165 ft | 467 kts | 200° |
| 2026-04-23 12:39 | 45.77877 | 16.69532 | 34162 ft | 467 kts | 200° |
| 2026-04-23 12:39 | 45.71841 | 16.66063 | 34169 ft | 467 kts | 200° |
| 2026-04-23 12:40 | 45.65796 | 16.62598 | 34168 ft | 467 kts | 200° |
| 2026-04-23 12:40 | 45.59773 | 16.59153 | 34168 ft | 468 kts | 200° |
| 2026-04-23 12:41 | 45.53716 | 16.55696 | 34176 ft | 469 kts | 200° |
| 2026-04-23 12:41 | 45.47647 | 16.52241 | 34170 ft | 469 kts | 200° |
| 2026-04-23 12:42 | 45.41604 | 16.48809 | 34172 ft | 470 kts | 200° |
| 2026-04-23 12:42 | 45.35515 | 16.45358 | 34180 ft | 470 kts | 200° |
| 2026-04-23 12:43 | 45.29461 | 16.41935 | 34162 ft | 471 kts | 200° |
| 2026-04-23 12:43 | 45.19311 | 16.36213 | 34168 ft | 471 kts | 200° |
| 2026-04-23 12:44 | 44.70438 | 16.08918 | 34174 ft | 473 kts | 199° |
| 2026-04-23 12:44 | 44.21585 | 15.82152 | 34208 ft | 470 kts | 198° |
| 2026-04-23 12:45 | 43.73448 | 15.56310 | 34072 ft | 455 kts | 197° |
| 2026-04-23 12:45 | 43.49703 | 15.43705 | 34240 ft | 457 kts | 197° |
| 2026-04-23 12:45 | 43.25719 | 15.31088 | 34261 ft | 464 kts | 197° |
| 2026-04-23 12:46 | 42.76296 | 15.11884 | 34216 ft | 459 kts | 180° |
| 2026-04-23 12:46 | 42.50577 | 15.07890 | 34264 ft | 470 kts | 184° |
| 2026-04-23 12:46 | 42.24683 | 15.00895 | 34200 ft | 473 kts | 187° |
| 2026-04-23 12:47 | 41.73850 | 14.88561 | 34131 ft | 461 kts | 186° |
| 2026-04-23 12:47 | 41.26545 | 14.77388 | 34170 ft | 467 kts | 182° |
| 2026-04-23 12:48 | 41.14032 | 14.80909 | 34201 ft | 464 kts | 160° |
| 2026-04-23 12:48 | 40.99150 | 14.86488 | 34139 ft | 471 kts | 163° |
| 2026-04-23 12:48 | 40.48553 | 15.04789 | 34051 ft | 470 kts | 165° |
| 2026-04-23 12:49 | 40.36839 | 15.08942 | 34088 ft | 458 kts | 165° |
| 2026-04-23 12:49 | 40.33790 | 15.10003 | 33988 ft | 447 kts | 166° |
| 2026-04-23 12:49 | 40.30850 | 15.11042 | 33695 ft | 439 kts | 165° |
| 2026-04-23 12:50 | 40.28009 | 15.12498 | 33223 ft | 435 kts | 152° |
| 2026-04-23 12:50 | 40.25451 | 15.14610 | 32602 ft | 434 kts | 142° |
| 2026-04-23 12:50 | 40.23045 | 15.16985 | 32032 ft | 431 kts | 142° |
| 2026-04-23 12:50 | 40.20688 | 15.19331 | 31535 ft | 427 kts | 142° |
| 2026-04-23 12:51 | 40.18335 | 15.21667 | 31081 ft | 423 kts | 142° |
| 2026-04-23 12:51 | 40.15998 | 15.23970 | 30690 ft | 416 kts | 142° |
| 2026-04-23 12:51 | 40.13695 | 15.26225 | 30345 ft | 410 kts | 142° |
| 2026-04-23 12:51 | 40.11427 | 15.28434 | 29948 ft | 403 kts | 142° |
| 2026-04-23 12:52 | 40.09195 | 15.30602 | 29572 ft | 396 kts | 144° |
| 2026-04-23 12:52 | 40.06991 | 15.32737 | 29192 ft | 391 kts | 144° |
| 2026-04-23 12:52 | 40.04826 | 15.34831 | 28872 ft | 384 kts | 144° |
| 2026-04-23 12:52 | 40.02711 | 15.36875 | 28504 ft | 382 kts | 144° |
| 2026-04-23 12:53 | 40.00551 | 15.38958 | 28194 ft | 392 kts | 144° |
| 2026-04-23 12:53 | 39.98319 | 15.41111 | 27855 ft | 405 kts | 144° |
| 2026-04-23 12:53 | 39.96079 | 15.43269 | 27474 ft | 401 kts | 143° |
| 2026-04-23 12:53 | 39.93841 | 15.45425 | 27103 ft | 394 kts | 143° |
| 2026-04-23 12:54 | 39.91648 | 15.47535 | 26751 ft | 387 kts | 143° |
| 2026-04-23 12:54 | 39.89499 | 15.49602 | 26411 ft | 381 kts | 143° |
| 2026-04-23 12:54 | 39.87381 | 15.51636 | 26071 ft | 375 kts | 143° |
| 2026-04-23 12:54 | 39.85320 | 15.53615 | 25736 ft | 369 kts | 144° |
| 2026-04-23 12:55 | 39.83256 | 15.55595 | 25412 ft | 366 kts | 144° |
| 2026-04-23 12:55 | 39.81211 | 15.57555 | 25097 ft | 363 kts | 144° |
| 2026-04-23 12:55 | 39.79165 | 15.59515 | 24792 ft | 367 kts | 144° |
| 2026-04-23 12:55 | 39.77067 | 15.61520 | 24460 ft | 380 kts | 144° |
| 2026-04-23 12:56 | 39.74945 | 15.63549 | 24105 ft | 381 kts | 144° |
| 2026-04-23 12:56 | 39.72822 | 15.65579 | 23769 ft | 376 kts | 145° |
| 2026-04-23 12:56 | 39.70729 | 15.67577 | 23376 ft | 371 kts | 145° |
| 2026-04-23 12:56 | 39.68660 | 15.69553 | 23003 ft | 365 kts | 145° |
| 2026-04-23 12:57 | 39.66627 | 15.71492 | 22660 ft | 359 kts | 145° |
| 2026-04-23 12:57 | 39.64654 | 15.73372 | 22333 ft | 353 kts | 145° |
| 2026-04-23 12:57 | 39.62692 | 15.75240 | 22022 ft | 347 kts | 145° |
| 2026-04-23 12:57 | 39.60747 | 15.77091 | 21714 ft | 344 kts | 145° |
| 2026-04-23 12:58 | 39.58815 | 15.78926 | 21408 ft | 345 kts | 145° |
| 2026-04-23 12:58 | 39.56840 | 15.80800 | 21115 ft | 356 kts | 145° |
| 2026-04-23 12:58 | 39.54841 | 15.82696 | 20792 ft | 362 kts | 145° |
| 2026-04-23 12:58 | 39.52806 | 15.84625 | 20454 ft | 361 kts | 145° |
| 2026-04-23 12:59 | 39.50807 | 15.86521 | 20120 ft | 358 kts | 145° |
| 2026-04-23 12:59 | 39.48802 | 15.88420 | 19787 ft | 356 kts | 145° |
| 2026-04-23 12:59 | 39.46798 | 15.90319 | 19458 ft | 354 kts | 145° |
| 2026-04-23 12:59 | 39.44820 | 15.92189 | 19150 ft | 351 kts | 145° |
| 2026-04-23 13:00 | 39.42844 | 15.94057 | 18833 ft | 349 kts | 145° |
| 2026-04-23 13:00 | 39.40887 | 15.95905 | 18516 ft | 347 kts | 145° |
| 2026-04-23 13:00 | 39.38961 | 15.97723 | 18181 ft | 346 kts | 145° |
| 2026-04-23 13:00 | 39.37018 | 15.99555 | 17832 ft | 344 kts | 145° |
| 2026-04-23 13:01 | 39.35092 | 16.01371 | 17487 ft | 341 kts | 145° |
| 2026-04-23 13:01 | 39.33195 | 16.03156 | 17172 ft | 339 kts | 145° |
| 2026-04-23 13:01 | 39.31293 | 16.04947 | 16863 ft | 336 kts | 145° |
| 2026-04-23 13:01 | 39.29410 | 16.06718 | 16543 ft | 334 kts | 145° |
| 2026-04-23 13:02 | 39.27530 | 16.08485 | 16244 ft | 333 kts | 145° |
| 2026-04-23 13:02 | 39.25659 | 16.10242 | 15939 ft | 331 kts | 145° |
| 2026-04-23 13:02 | 39.23800 | 16.11987 | 15631 ft | 330 kts | 145° |
| 2026-04-23 13:02 | 39.21970 | 16.13702 | 15339 ft | 329 kts | 145° |
| 2026-04-23 13:03 | 39.20116 | 16.15440 | 15019 ft | 328 kts | 145° |
| 2026-04-23 13:03 | 39.18271 | 16.17169 | 14711 ft | 327 kts | 145° |
| 2026-04-23 13:03 | 39.16431 | 16.18891 | 14414 ft | 324 kts | 145° |
| 2026-04-23 13:03 | 39.14613 | 16.20592 | 14113 ft | 322 kts | 145° |
| 2026-04-23 13:04 | 39.13410 | 16.21717 | 13909 ft | 322 kts | 145° |
| 2026-04-23 13:04 | 39.11023 | 16.23947 | 13506 ft | 318 kts | 144° |
| 2026-04-23 13:04 | 39.09237 | 16.25614 | 13182 ft | 316 kts | 145° |
| 2026-04-23 13:04 | 39.07458 | 16.27274 | 12880 ft | 314 kts | 144° |
| 2026-04-23 13:05 | 39.06285 | 16.28368 | 12691 ft | 312 kts | 144° |
| 2026-04-23 13:05 | 39.04526 | 16.30008 | 12400 ft | 311 kts | 144° |
| 2026-04-23 13:05 | 39.02216 | 16.32159 | 12008 ft | 308 kts | 144° |
| 2026-04-23 13:05 | 39.00487 | 16.33768 | 11717 ft | 306 kts | 144° |
| 2026-04-23 13:06 | 38.97625 | 16.36429 | 11254 ft | 302 kts | 144° |
| 2026-04-23 13:06 | 38.95929 | 16.38005 | 10968 ft | 299 kts | 144° |
| 2026-04-23 13:06 | 38.94250 | 16.39566 | 10694 ft | 297 kts | 144° |
| 2026-04-23 13:07 | 38.92042 | 16.41616 | 10326 ft | 294 kts | 144° |
| 2026-04-23 13:07 | 38.90926 | 16.42652 | 10156 ft | 292 kts | 144° |
| 2026-04-23 13:07 | 38.89303 | 16.44158 | 10034 ft | 284 kts | 144° |
| 2026-04-23 13:07 | 38.87707 | 16.45637 | 9745 ft | 283 kts | 144° |
| 2026-04-23 13:08 | 38.86113 | 16.47112 | 9470 ft | 281 kts | 144° |
| 2026-04-23 13:08 | 38.84535 | 16.48574 | 9191 ft | 280 kts | 145° |
| 2026-04-23 13:08 | 38.82965 | 16.50026 | 8916 ft | 279 kts | 145° |
| 2026-04-23 13:08 | 38.81390 | 16.51482 | 8637 ft | 277 kts | 145° |
| 2026-04-23 13:09 | 38.79831 | 16.52928 | 8364 ft | 276 kts | 143° |
| 2026-04-23 13:09 | 38.78614 | 16.54803 | 8060 ft | 276 kts | 112° |
| 2026-04-23 13:09 | 38.78125 | 16.57123 | 7825 ft | 273 kts | 98° |
| 2026-04-23 13:09 | 38.77848 | 16.59506 | 7653 ft | 267 kts | 96° |
| 2026-04-23 13:10 | 38.77920 | 16.61831 | 7500 ft | 258 kts | 70° |
| 2026-04-23 13:10 | 38.78798 | 16.63750 | 7349 ft | 247 kts | 43° |
| 2026-04-23 13:10 | 38.80170 | 16.65008 | 7141 ft | 240 kts | 21° |
| 2026-04-23 13:10 | 38.81758 | 16.65584 | 6913 ft | 235 kts | 7° |
| 2026-04-23 13:11 | 38.83371 | 16.65770 | 6660 ft | 233 kts | 351° |
| 2026-04-23 13:11 | 38.84786 | 16.64862 | 6418 ft | 231 kts | 312° |
| 2026-04-23 13:11 | 38.85517 | 16.63056 | 6192 ft | 230 kts | 290° |
| 2026-04-23 13:11 | 38.86004 | 16.61088 | 5926 ft | 234 kts | 288° |
| 2026-04-23 13:12 | 38.86460 | 16.59050 | 5670 ft | 240 kts | 285° |
| 2026-04-23 13:12 | 38.86800 | 16.56963 | 5419 ft | 237 kts | 281° |
| 2026-04-23 13:12 | 38.87055 | 16.54894 | 5185 ft | 231 kts | 279° |
| 2026-04-23 13:12 | 38.87274 | 16.52943 | 5101 ft | 214 kts | 278° |
| 2026-04-23 13:13 | 38.87475 | 16.51128 | 4936 ft | 195 kts | 279° |
| 2026-04-23 13:13 | 38.87662 | 16.49468 | 4623 ft | 183 kts | 279° |
| 2026-04-23 13:13 | 38.87845 | 16.47851 | 4144 ft | 181 kts | 279° |
| 2026-04-23 13:13 | 38.88024 | 16.46279 | 3653 ft | 179 kts | 277° |
| 2026-04-23 13:14 | 38.88203 | 16.44707 | 3153 ft | 178 kts | 276° |
| 2026-04-23 13:14 | 38.88379 | 16.43148 | 2759 ft | 172 kts | 276° |
| 2026-04-23 13:14 | 38.88551 | 16.41635 | 2456 ft | 168 kts | 276° |
| 2026-04-23 13:14 | 38.88713 | 16.40221 | 2269 ft | 161 kts | 277° |
| 2026-04-23 13:15 | 38.88872 | 16.38795 | 2061 ft | 162 kts | 279° |
| 2026-04-23 13:15 | 38.89035 | 16.37368 | 1882 ft | 159 kts | 279° |
| 2026-04-23 13:15 | 38.89197 | 16.35956 | 1632 ft | 158 kts | 279° |
| 2026-04-23 13:15 | 38.89352 | 16.34601 | 1393 ft | 149 kts | 279° |
| 2026-04-23 13:16 | 38.89496 | 16.33341 | 1214 ft | 135 kts | 277° |
| 2026-04-23 13:16 | 38.89635 | 16.32132 | 1037 ft | 139 kts | 277° |
| 2026-04-23 13:16 | 38.89777 | 16.30895 | 839 ft | 137 kts | 277° |
| 2026-04-23 13:16 | 38.89914 | 16.29696 | 655 ft | 136 kts | 277° |
| 2026-04-23 13:17 | 38.90057 | 16.28466 | 423 ft | 143 kts | 278° |
| 2026-04-23 13:17 | 38.90199 | 16.27259 | 308 ft | 134 kts | 276° |
| 2026-04-23 13:17 | 38.90325 | 16.26077 | 88 ft | 132 kts | 275° |
| 2026-04-23 13:17 | 38.90449 | 16.24985 | 35 ft | 112 kts | 277° |
| 2026-04-23 13:18 | 38.90531 | 16.24232 | 27 ft | 65 kts | 278° |
| 2026-04-23 13:18 | 38.90587 | 16.23841 | 29 ft | 32 kts | 282° |
| 2026-04-23 13:18 | 38.90651 | 16.23618 | 33 ft | 18 kts | 306° |
| 2026-04-23 13:18 | 38.90730 | 16.23499 | 33 ft | 17 kts | 318° |
| 2026-04-23 13:19 | 38.90834 | 16.23521 | 31 ft | 17 kts | 65° |
| 2026-04-23 13:19 | 38.90828 | 16.23671 | 31 ft | 17 kts | 100° |
| 2026-04-23 13:19 | 38.90839 | 16.23789 | 31 ft | 12 kts | 29° |
| 2026-04-23 13:19 | 38.90878 | 16.23869 | 31 ft | 12 kts | 96° |
| 2026-04-23 13:20 | 38.90866 | 16.23977 | 30 ft | 13 kts | 98° |
| 2026-04-23 13:20 | 38.90853 | 16.24090 | 31 ft | 12 kts | 98° |
| 2026-04-23 13:20 | 38.90840 | 16.24200 | 31 ft | 13 kts | 99° |
| 2026-04-23 13:20 | 38.90827 | 16.24308 | 31 ft | 9 kts | 98° |
| 2026-04-23 13:21 | 38.90835 | 16.24351 | 31 ft | 3 kts | 31° |
| 2026-04-23 13:21 | 38.90864 | 16.24359 | 31 ft | 5 kts | 10° |
| 2026-04-23 13:21 | 38.90889 | 16.24382 | 30 ft | 0 kts | 51° |